Etusivu
METAR-TAF:

METAR-TAF

Lentoasemat :

Naval Air Weapons Station China Lake (Armitage Field)

China Lake Acres, Kalifornia, Yhdysvallat

Leveyspiiri: 35-41-11N, Pituuspiiri: 117-41-24W, korkeus merenpinnasta: 696 m

Tämänhetkinen sää

Tämä raportti tehtiin 34 minuuttia sitten, kello 09.56 UTC
Tuuli 6 kn lännestä
Lämpötila 8°C
Kosteus 61%
Ilmanpaine 1016 hPa
Näkyvyys: 16.1 km
selkeää

METAR: KNID 170956Z AUTO 28006KT 10SM CLR 08/01 A2999 RMK AO2 SLP151 T00780006 $

Aika: 02:30 (10:30 UTC)


TAF: puuttuu

Säähavainnot ja -ennusteet yli 4000 lentoasemalta (METAR- ja TAF-raportit).

Käytössä olevat sääasemat on merkitty karttaan keltaisilla ja punaisilla pisteillä.

Aseta hiiri pisteen päälle nähdäksesi sääaseman nimen.

Klikkaa sitten nähdäksesi säähavainnot ja -ennusteet.

Kartan vaihtaminen: klikkaa mustalla rastilla varustettuja vihreitä pisteitä, niin voit zoomata sisään; viivalla varustettua vihreää pistettä, niin voit zoomata ulos tai vihreitä nuolia, niin pääset viereisille kartoille.


METAR-TAF: